Tiempo atmosférico en la estación meteorológica de Córdoba Aeropuerto, Córdoba (90 m.)

Fecha
DESCASC
Temp. máxima en grados centígrados (hora)
DESCASC
Temp. mínima en grados centígrados (hora)
DESCASC
Temp. media en grados centígrados
DESCASC
Racha de viento máxima en m/sg (hora)
DESCASC
Velocidad máxima media en intervalos de 10 minutos(hora)
DESCASC
Precipitaciones diarias en mm
DESCASC
Precipitaciones de 00:00 a 06:00 en mm
DESCASC
Precipitaciones de 06:00 a 12:00 en mm
DESCASC
Precipitaciones de 12:00 a 18:00 en mm
DESCASC
Precipitaciones de 18:00 a 24:00 en mm
DESCASC
22-10-2017 29.2 (18:10) 13.8 (08:20) 21.5 7.22 (13:00) 5 (13:30) 0 0 0 0 0
21-10-2017 28.2 (16:40) 15.8 (05:50) 22 9.72 (22:00) 4.17 (11:00) 0 0 0 0 0
20-10-2017 26.5 (15:30) 13.6 (05:30) 20.1 4.17 (14:10) 2.78 (02:20) 0 0 0 0 0
19-10-2017 22.5 (16:30) 14.7 (00:00) 18.6 8.33 (16:50) 5.28 (16:50) 1.4 1.4 0 0 0
18-10-2017 20.9 (17:50) 15.9 (00:00) 18.4 9.17 (01:20) 5.83 (15:50) 24.9 8.5 5.9 0 10.5
17-10-2017 27.5 (15:40) 17.5 (00:00) 22.5 9.72 (17:40) 5.83 (17:50) 3.8 0 0 0 3.8
16-10-2017 32.4 (15:50) 14 (00:00) 23.2 7.22 (11:40) 5 (11:40) 0 0 0 0 0
15-10-2017 35.4 (16:10) 14.9 (00:00) 25.2 9.17 (17:00) 6.11 (18:10) 0 0 0 0 0
14-10-2017 35.7 (17:40) 15.8 (00:00) 25.8 10.28 (20:20) 5.56 (20:20) 0 0 0 0 0
13-10-2017 34.8 (16:20) 14.5 (00:00) 24.6 10.28 (17:20) 4.72 (17:20) 0 0 0 0 0
12-10-2017 34.4 (15:50) 17.3 (00:00) 25.9 7.78 (20:30) 4.72 (10:40) 0 0 0 0 0
11-10-2017 35.3 (17:20) 13.8 (00:00) 24.5 7.22 (12:40) 5 (11:50) 0 0 0 0 0
10-10-2017 33.8 (16:50) 13.7 (00:00) 23.7 9.17 (17:20) 3.61 (10:20) 0 0 0 0 0
09-10-2017 34.1 (17:30) 13.3 (00:00) 23.7 5.83 (17:10) 3.06 (10:30) 0 0 0 0 0
08-10-2017 32.6 (17:00) 15.9 (00:00) 24.2 5.83 (12:00) 2.5 (12:30) 0 0 0 0 0
07-10-2017 35 (16:00) 16.6 (00:00) 25.8 9.17 (19:30) 6.39 (19:30) 0 0 0 0 0
06-10-2017 35.6 (17:10) 13.9 (00:00) 24.7 6.67 (16:50) 2.78 (16:10) 0 0 0 0 0
05-10-2017 34.6 (18:00) 16.5 (00:00) 25.5 7.78 (15:20) 4.44 (16:50) 0 0 0 0 0
04-10-2017 34.4 (16:00) 17.4 (00:00) 25.9 10.28 (21:20) 6.11 (18:40) 0 0 0 0 0
03-10-2017 34.8 (17:30) 16.7 (00:00) 25.8 4.72 (17:00) 2.78 (02:10) 0 0 0 0 0
02-10-2017 35.3 (16:50) 16.9 (00:00) 26.1 9.17 (13:40) 6.11 (13:40) 0 0 0 0 0
01-10-2017 35.6 (16:20) 16.5 (00:00) 26 6.67 (14:20) 3.89 (21:50) 0 0 0 0 0
30-09-2017 33.2 (17:20) 16.5 (00:00) 24.9 5.83 (15:50) 3.06 (00:20) 0 0 0 0 0
29-09-2017 33.8 (17:30) 17.8 (00:00) 25.8 6.11 (14:40) 3.61 (21:50) 0 0 0 0 0
28-09-2017 33.4 (17:00) 18.1 (00:00) 25.8 7.78 (16:30) 5 (22:10) 0 0 0 0 0
27-09-2017 -- (--) -- (--) -- -- (--) -- (--) -- -- -- 0 0
26-09-2017 33.4 (16:40) 12 (00:00) 22.7 7.22 (17:40) 4.72 (21:30) 0 0 0 0 0
25-09-2017 34.4 (17:20) 14.4 (00:00) 24.4 9.72 (17:00) 5.56 (17:00) 0 0 0 0 0
24-09-2017 34.1 (17:50) 16.5 (00:00) 25.3 7.22 (18:40) 3.61 (19:50) 0 0 0 0 0
23-09-2017 33.4 (17:30) 17.1 (00:00) 25.3 7.22 (00:10) 3.89 (00:10) 0 0 0 0 0

Gráficas

Temp. máximas Temp. mínimas Temp. medias Precipitaciones Rachas de viento máximas Velocidades máximas media en intervalos de 10 minutos

Datos horarios

Fecha y hora oficial Temperatura (ºC) Velocidad del viento (km/h) Dirección del viento Racha (km/h) Dirección de racha Precipitación (mm) Presión (hPa) Tendencia (hPa) Humedad (%)
2017-10-22 23:00:00 17.5 0 Calma 5 Este 0 1012.3 0.9 82
2017-10-22 22:00:00 18.6 0 Calma -- -- 0 1011.9 0.9 72
2017-10-22 21:00:00 20.2 0 Calma 4 Nordeste 0 1011.5 0.5 63
2017-10-22 20:00:00 23.2 0 Calma 4 Sur 0 1011.4 0.3 50
2017-10-22 19:00:00 27.6 0 Calma 5 Este 0 1011 -0.6 33
2017-10-22 18:00:00 28.3 2 Sudeste 13 Sur 0 1011 -1.2 31
2017-10-22 17:00:00 28.4 4 Sur 13 Este 0 1011.1 -2 30
2017-10-22 16:00:00 27.4 2 Este 21 Este 0 1011.6 -2.2 31
2017-10-22 15:00:00 27 10 Este 26 Este 0 1012.2 -1.9 36
2017-10-22 14:00:00 25.6 16 Este 26 Nordeste 0 1013.1 -1.3 44
2017-10-22 13:00:00 24.1 16 Este 26 Este 0 1013.8 0.1 49
2017-10-22 12:00:00 23 16 Este 21 Este 0 1014.1 0.7 56
2017-10-22 11:00:00 20.3 4 Este 11 Este 0 1014.4 1.3 67
2017-10-22 10:00:00 16.5 0 Calma 4 Norte 0 1013.7 0.9 86
2017-10-22 09:00:00 14.3 0 Calma 4 Sudoeste 0 1013.4 0.9 93
2017-10-22 08:00:00 14 0 Calma -- -- 0 1013.1 0.7 92
2017-10-22 07:00:00 14.7 0 Calma -- -- 0 1012.8 0.1 92
2017-10-22 06:00:00 15.4 0 Calma 5 Sur 0 1012.5 -0.4 90
2017-10-22 05:00:00 16 0 Calma 5 Sur 0 1012.4 -0.3 87
2017-10-22 04:00:00 16.8 0 Calma 8 Sur 0 1012.7 0 84
2017-10-22 03:00:00 19.4 2 Norte 18 Nordeste 0 1012.9 0.6 70
2017-10-22 02:00:00 20.2 10 Norte 18 Norte 0 1012.7 0.5 68
2017-10-22 01:00:00 19.5 0 Calma 9 Norte 0 1012.7 0.8 76
2017-10-22 00:00:00 21.6 9 Noroeste 21 Norte 0 1012.3 0.6 63
2017-10-21 23:00:00 22.2 13 Norte 26 Nordeste 0 1012.2 1.3 60
2017-10-21 22:00:00 23.1 8 Nordeste 35 Nordeste 0 1011.9 1.3 56
2017-10-21 21:00:00 22.6 5 Nordeste 11 Nordeste 0 1011.7 1.1 60
2017-10-21 20:00:00 23.7 4 Oeste -- -- 0 1010.9 0 69
2017-10-21 19:00:00 26.6 0 Calma 5 Oeste 0 1010.6 -0.9 50
2017-10-21 18:00:00 27 2 Sudoeste 15 Oeste 0 1010.6 -1.5 49
2017-10-21 17:00:00 27.7 3 Oeste 13 Oeste 0 1010.9 -2 48
2017-10-21 16:00:00 27.5 2 Este 13 Oeste 0 1011.5 -2.4 49
2017-10-21 15:00:00 26.7 7 Sur 15 Sur 0 1012.1 -2.1 53
2017-10-21 14:00:00 25.5 8 Este 18 Este 0 1012.9 -1.3 56
2017-10-21 13:00:00 23.8 6 Este 17 Este 0 1013.9 0.1 61
2017-10-21 12:00:00 21.5 12 Este 21 Este 0 1014.2 1 69
2017-10-21 11:00:00 20.2 15 Este 21 Este 0 1014.2 1.3 73
2017-10-21 10:00:00 17.4 9 Este 15 Este 0 1013.8 1.3 85
2017-10-21 09:00:00 16.9 7 Este 15 Este 0 1013.2 1.1 88
2017-10-21 08:00:00 16.6 0 Calma 5 Este 0 1012.9 1.2 90
2017-10-21 07:00:00 15.9 3 Nordeste 13 Sudeste 0 1012.5 0.6 91
2017-10-21 06:00:00 15.8 2 Este 11 Este 0 1012.1 -0.2 91
2017-10-21 05:00:00 16 4 Este 11 Este 0 1011.7 -0.3 91
2017-10-21 04:00:00 16.2 7 Este 11 Este 0 1011.9 -0.2 92
2017-10-21 03:00:00 16.3 4 Este 8 Este 0 1012.3 0.1 90
2017-10-21 02:00:00 16.9 5 Este 11 Este 0 1012 0 89
2017-10-21 01:00:00 17.2 5 Este 8 Este 0 1012.1 0.5 89
2017-10-21 00:00:00 17.8 0 Calma 4 Este 0 1012.2 1 88
2017-10-20 23:00:00 18.1 4 Nordeste 5 Nordeste 0 1012 1.3 86
2017-10-20 22:00:00 19 0 Calma -- -- 0 1011.6 1.6 81
2017-10-20 21:00:00 20.5 0 Calma 5 Norte 0 1011.2 1.3 75
2017-10-20 20:00:00 22.1 0 Calma 8 Este 0 1010.7 0.5 68
2017-10-20 19:00:00 24.2 4 Este 13 Este 0 1010 -0.4 56
2017-10-20 18:00:00 25.7 0 Calma 13 Este 0 1009.9 -0.7 50
2017-10-20 17:00:00 25 6 Este 13 Este 0 1010.2 -0.9 54
2017-10-20 16:00:00 24.7 7 Este 15 Este 0 1010.4 -1.4 54
2017-10-20 15:00:00 24.5 3 Este 15 Sur 0 1010.6 -1 55
2017-10-20 14:00:00 23.8 4 Sudeste 13 Sudeste 0 1011.1 0.1 58
2017-10-20 13:00:00 21.4 2 Este 8 Este 0 1011.8 1.2 66
2017-10-20 12:00:00 21.4 0 Calma 5 Sur 0 1011.6 1.6 63
2017-10-20 11:00:00 19.8 0 Calma -- -- 0 1011 1.6 70
2017-10-20 10:00:00 17.1 0 Calma 4 Este 0 1010.6 1.7 83
2017-10-20 09:00:00 15 0 Calma 5 Sudeste 0 1010 1.1 90
2017-10-20 08:00:00 14.8 4 Sudeste 8 Sudeste 0 1009.4 1 91
2017-10-20 07:00:00 14 0 Calma 8 Oeste 0 1008.9 0.4 92
2017-10-20 06:00:00 13.7 0 Calma -- -- 0 1008.9 0.5 91
2017-10-20 05:00:00 13.8 0 Calma -- -- 0 1008.4 0.4 90
2017-10-20 04:00:00 14.6 0 Calma -- -- -- 1008.5 0.4 87
2017-10-20 03:00:00 14.9 4 Sudoeste 11 Oeste 0 1008.4 0.7 87
2017-10-20 02:00:00 14.6 3 Oeste 8 Oeste 0 1008 0.9 88
2017-10-20 01:00:00 15 4 Sudoeste 8 Sur 0 1008.1 1.5 88
2017-10-20 00:00:00 15.5 6 Oeste 8 Oeste 0 1007.7 2 84
2017-10-19 23:00:00 16.2 0 Calma -- -- 0 1007.1 2 82
2017-10-19 22:00:00 17 0 Calma 4 Oeste 0 1006.6 2.5 75
2017-10-19 21:00:00 18.1 0 Calma 8 Noroeste 0 1005.7 2.3 69
2017-10-19 20:00:00 19.3 3 Oeste 17 Oeste 0 1005.1 2 67
2017-10-19 19:00:00 21.7 10 Oeste 26 Sudoeste 0 1004.1 0.9 60
2017-10-19 18:00:00 22.4 16 Sudoeste 28 Sudoeste 0 1003.4 -0.1 57
2017-10-19 17:00:00 21.6 15 Sudoeste 30 Oeste 0 1003.1 -0.9 55
2017-10-19 16:00:00 21 14 Sudoeste 28 Sudoeste 0 1003.2 -1 58
2017-10-19 15:00:00 21.4 18 Sudoeste 24 Oeste 0 1003.5 -0.7 61
2017-10-19 14:00:00 20.9 8 Sudoeste 21 Sur 0 1004 0.3 63
2017-10-19 13:00:00 20.8 6 Sur 15 Sur 0 1004.2 1.1 60
2017-10-19 12:00:00 19.4 6 Este 15 Este 0 1004.2 2 68
2017-10-19 11:00:00 16.9 6 Este 15 Este 0 1003.7 2 82
2017-10-19 10:00:00 15.1 10 Este 22 Este 0 1003.1 1.8 89
2017-10-19 09:00:00 14.7 15 Nordeste 21 Este 0 1002.2 1.4 92
2017-10-19 08:00:00 14.8 6 Este 13 Este 0 1001.7 1.1 92
2017-10-19 07:00:00 15.1 10 Nordeste 24 Este 0 1001.3 -0.2 89
2017-10-19 06:00:00 15.4 2 Este 11 Nordeste 0 1000.8 -1.2 93
2017-10-19 05:00:00 15.7 5 Norte 9 Norte 0 1000.6 -1.5 92
2017-10-19 04:00:00 16.1 0 Calma 11 Sudoeste 0.1 1001.5 -1.1 90
2017-10-19 03:00:00 16.2 6 Oeste 21 Oeste 0.1 1002 -1 89
2017-10-19 02:00:00 16.8 8 Oeste 21 Sudoeste 0.3 1002.1 -1 90
2017-10-19 01:00:00 17.1 10 Oeste 18 Oeste 0.9 1002.6 -0.2 91
2017-10-19 00:00:00 17 11 Oeste 30 Sudoeste 9.5 1003 0.3 89
2017-10-18 23:00:00 17.5 13 Sudoeste 24 Oeste 1 1003.1 1 88
2017-10-18 22:00:00 17.2 4 Sudoeste 13 Sudoeste 0 1002.8 0.5 84
2017-10-18 21:00:00 17.3 7 Sudoeste 13 Sudoeste 0 1002.7 0.6 82
2017-10-18 20:00:00 18.4 8 Sudoeste 22 Oeste 0 1002.1 -0.1 75
2017-10-18 19:00:00 19.1 8 Oeste 30 Sudoeste 0 1002.3 -0.5 71
2017-10-18 18:00:00 20.6 20 Oeste 30 Oeste 0 1002.1 -0.9 65
2017-10-18 17:00:00 19.9 14 Sudoeste 22 Oeste 0 1002.2 -1.5 65
2017-10-18 16:00:00 19.2 19 Oeste 30 Oeste 0 1002.8 -1.6 70
2017-10-18 15:00:00 19.5 9 Sudoeste 21 Oeste 0 1003 -1.4 74
2017-10-18 14:00:00 18.7 12 Sudoeste 24 Oeste 0 1003.7 -1 79
2017-10-18 13:00:00 18.1 18 Oeste 30 Oeste 0 1004.4 0.5 83
2017-10-18 12:00:00 17.2 13 Oeste 26 Oeste 0 1004.4 0.5 89
2017-10-18 11:00:00 16.2 14 Oeste 22 Oeste 0 1004.7 1.4 91
2017-10-18 10:00:00 16.2 11 Sudoeste 24 Sudoeste 0.7 1003.9 0.3 91
2017-10-18 09:00:00 16.8 12 Sudoeste 18 Sudoeste 2 1003.9 -0.2 93
2017-10-18 08:00:00 16.9 10 Sudoeste 18 Oeste 2.3 1003.3 -0.8 91
2017-10-18 07:00:00 17 12 Oeste 22 Oeste 0.9 1003.6 -1.8 91
2017-10-18 06:00:00 17.2 5 Oeste 11 Oeste 0.6 1004.1 -1.8 88
2017-10-18 05:00:00 17.3 10 Sur 17 Sur 0.8 1004.1 -2.5 89
2017-10-18 04:00:00 16.9 3 Este 13 Sudeste 0.5 1005.4 -1.7 93
2017-10-18 03:00:00 16.9 6 Sudeste 13 Sur 0.1 1005.9 -1 93
2017-10-18 02:00:00 16.5 5 Oeste 33 Oeste 6.5 1006.6 -1.5 93
2017-10-18 01:00:00 18.2 7 Oeste 24 Oeste 0 1007.1 -0.8 92
2017-10-18 00:00:00 18 6 Sudeste 11 Sudeste 0 1006.9 -0.2 92
2017-10-17 23:00:00 17.9 3 Sur 26 Oeste 3.8 1008.1 1.1 92
2017-10-17 22:00:00 20 17 Noroeste 24 Noroeste 0 1007.9 0.7 77
2017-10-17 21:00:00 20.9 4 Este 8 Este 0 1007.1 -0.3 74
2017-10-17 20:00:00 21.9 6 Nordeste 15 Este 0 1007 -0.1 70
2017-10-17 19:00:00 23.6 6 Este 22 Noroeste 0 1007.2 -0.6 59
2017-10-17 18:00:00 23 20 Noroeste 35 Oeste 0 1007.4 -1.5 64
2017-10-17 17:00:00 26.9 8 Sur 21 Sur 0 1007.1 -2.2 40
2017-10-17 16:00:00 26.6 7 Sur 21 Sudoeste 0 1007.8 -1.7 41
2017-10-17 15:00:00 26 15 Sudoeste 32 Sudoeste 0 1008.9 -1.6 43
2017-10-17 14:00:00 26.1 20 Sur 28 Sudoeste 0 1009.3 -1.8 42
2017-10-17 13:00:00 25.3 17 Sur 24 Sur 0 1009.5 -1.1 44
2017-10-17 12:00:00 24.1 4 Este 15 Nordeste 0 1010.5 0.3 43
2017-10-17 11:00:00 21.2 13 Nordeste 18 Este 0 1011.1 1.2 47
2017-10-17 10:00:00 19.8 13 Nordeste 18 Nordeste 0 1010.6 1 51
2017-10-17 09:00:00 18.7 5 Este 18 Este 0 1010.2 0.4 55
2017-10-17 08:00:00 18.9 14 Este 21 Nordeste 0 1009.9 -0.2 54
2017-10-17 07:00:00 19.1 14 Nordeste 22 Nordeste 0 1009.6 -1.1 54
2017-10-17 06:00:00 19.3 16 Este 21 Este 0 1009.8 -1.6 55
2017-10-17 05:00:00 20.4 6 Nordeste 17 Este 0 1010.1 -1.3 55
2017-10-17 04:00:00 18.5 4 Nordeste 11 Nordeste 0 1010.7 -1.2 61
2017-10-17 03:00:00 18.4 0 Calma 8 Este 0 1011.4 -0.5 61
2017-10-17 02:00:00 18.2 0 Calma 8 Norte 0 1011.4 -0.2 58
2017-10-17 01:00:00 19 3 Noroeste 5 Noroeste 0 1011.9 0.6 55
2017-10-17 00:00:00 19.4 0 Calma 8 Sudoeste 0 1011.9 1.1 54
2017-10-16 23:00:00 21.8 3 Sur 15 Sudoeste 0 1011.6 1.4 45
2017-10-16 22:00:00 22.9 5 Sudoeste 18 Sudoeste 0 1011.3 1.5 42
2017-10-16 21:00:00 24.8 3 Nordeste 21 Sur 0 1010.8 1.1 36
2017-10-16 20:00:00 26.3 10 Sur 21 Sur 0 1010.2 0.3 30
2017-10-16 19:00:00 29.5 11 Sur 21 Sur 0 1009.8 -0.4 24
2017-10-16 18:00:00 31.7 13 Sur 26 Sur 0 1009.7 -1.3 19
2017-10-16 17:00:00 32.1 14 Sur 26 Sur 0 1009.9 -2.2 19
2017-10-16 16:00:00 32.3 15 Sur 26 Sur 0 1010.2 -2.5 18
2017-10-16 15:00:00 30.9 3 Este 17 Este 0 1011 -2 20
2017-10-16 14:00:00 28.6 4 Este 17 Este 0 1012.1 -1.1 23
2017-10-16 13:00:00 27.4 8 Este 21 Nordeste 0 1012.7 -0.1 26
2017-10-16 12:00:00 24.7 13 Este 26 Este 0 1013 0.9 32
2017-10-16 11:00:00 21.3 10 Este 22 Este 0 1013.2 1.6 35
2017-10-16 10:00:00 17.9 9 Este 15 Este 0 1012.8 1.6 45
2017-10-16 09:00:00 14.5 7 Este 13 Sudeste 0 1012.1 1 56
2017-10-16 08:00:00 14.4 8 Nordeste 13 Nordeste 0 1011.6 0.4 54
2017-10-16 07:00:00 14.5 11 Este 15 Este 0 1011.2 -0.2 58
2017-10-16 06:00:00 15.8 0 Calma 5 Sudoeste 0 1011.1 -0.1 65
2017-10-16 05:00:00 17.4 0 Calma 15 Noroeste 0 1011.2 0 61
2017-10-16 04:00:00 18.5 3 Noroeste 17 Oeste 0 1011.4 0.3 51
2017-10-16 03:00:00 20.5 2 Oeste 22 Sudoeste 0 1011.2 0.2 38
2017-10-16 02:00:00 19.6 3 Sudoeste 18 Oeste 0 1011.2 0.6 35
2017-10-16 01:00:00 20.7 9 Oeste 18 Oeste 0 1011.1 0.9 33
2017-10-16 00:00:00 23.1 7 Sudoeste 13 Sudoeste 0 1011 1.3 29
2017-10-15 23:00:00 24.8 4 Noroeste 22 Sudoeste 0 1010.6 1.1 26
2017-10-15 22:00:00 27.5 7 Sudoeste 30 Sudoeste 0 1010.2 1.1 23
2017-10-15 21:00:00 28.6 13 Sudoeste 30 Oeste 0 1009.7 0.7 22
2017-10-15 20:00:00 28.3 8 Noroeste 24 Sur 0 1009.5 0.5 21
2017-10-15 19:00:00 31.6 19 Sudoeste 32 Sur 0 1009.1 -0.4 18
2017-10-15 18:00:00 33.7 20 Sur 32 Sur 0 1009 -1.4 16
2017-10-15 17:00:00 35 19 Sur 33 Sur 0 1009 -2.6 15
2017-10-15 16:00:00 34.8 3 Sudeste 15 Este 0 1009.5 -3 15
2017-10-15 15:00:00 32.8 4 Nordeste 17 Este 0 1010.4 -2.7 17
2017-10-15 14:00:00 30.9 8 Nordeste 15 Nordeste 0 1011.6 -1.7 20
2017-10-15 13:00:00 28.9 12 Este 18 Este 0 1012.5 -0.6 24
2017-10-15 12:00:00 26 13 Este 24 Este 0 1013.1 0.2 28
2017-10-15 11:00:00 23.5 13 Este 18 Este 0 1013.3 0.7 33
2017-10-15 10:00:00 20 8 Este 17 Este 0 1013.1 0.7 45
2017-10-15 09:00:00 15.2 9 Este 13 Este 0 1012.9 0.9 61
2017-10-15 08:00:00 15.8 0 Calma 5 Norte 0 1012.6 0.7 55
2017-10-15 07:00:00 16.1 2 Sudeste 5 Sudeste 0 1012.4 0.3 53
2017-10-15 06:00:00 17.4 6 Este 15 Este 0 1012 -0.1 52
2017-10-15 05:00:00 18.1 0 Calma -- -- 0 1011.9 -0.2 49
2017-10-15 04:00:00 18.6 0 Calma 5 Nordeste 0 1012.1 0 48
2017-10-15 03:00:00 20.2 0 Calma 5 Nordeste 0 1012.1 0 44
2017-10-15 02:00:00 21.5 6 Nordeste 8 Nordeste 0 1012.1 0.4 39
2017-10-15 01:00:00 22.8 6 Norte 11 Norte 0 1012.1 0.7 37
2017-10-15 00:00:00 23.8 5 Sur 8 Sur 0 1012.1 0.9 35
2017-10-14 23:00:00 25 0 Calma 4 Sudoeste 0 1011.7 1 32
2017-10-14 22:00:00 26.6 4 Sur 13 Sur 0 1011.4 1 29
2017-10-14 21:00:00 29.5 0 Calma 37 Sudoeste 0 1011.2 0.9 21
2017-10-14 20:00:00 28.6 3 Oeste 11 Oeste 0 1010.7 0 25
2017-10-14 19:00:00 31.7 5 Oeste 9 Oeste 0 1010.4 -0.6 19
2017-10-14 18:00:00 34.4 2 Oeste 8 Oeste 0 1010.3 -1.1 15
2017-10-14 17:00:00 34 0 Calma 8 Sur 0 1010.7 -1.7 16
2017-10-14 16:00:00 34.3 0 Calma 13 Nordeste 0 1011 -2.3 16
2017-10-14 15:00:00 33.3 4 Nordeste 17 Este 0 1011.4 -2.3 18
2017-10-14 14:00:00 31.1 10 Nordeste 18 Este 0 1012.4 -1.2 20
2017-10-14 13:00:00 28.3 13 Este 22 Este 0 1013.3 -0.1 24
2017-10-14 12:00:00 25.1 14 Este 22 Este 0 1013.7 0.7 30
2017-10-14 11:00:00 21.6 15 Este 24 Este 0 1013.6 1 36
2017-10-14 10:00:00 19.2 5 Este 8 Este 0 1013.4 1 44
2017-10-14 09:00:00 16.9 4 Este 11 Este 0 1013 0.8 50
2017-10-14 08:00:00 16.1 3 Este 13 Este 0 1012.6 0.3 52
2017-10-14 07:00:00 15.8 3 Nordeste 8 Este 0 1012.4 -0.2 55
2017-10-14 06:00:00 16.9 0 Calma -- -- 0 1012.2 -0.6 56
2017-10-14 05:00:00 17.3 0 Calma 4 Este 0 1012.3 -0.5 54
2017-10-14 04:00:00 18.4 4 Nordeste 5 Este 0 1012.6 -0.3 51
2017-10-14 03:00:00 18.3 0 Calma 4 Este 0 1012.8 0.1 50
2017-10-14 02:00:00 18.9 0 Calma -- -- 0 1012.8 0.6 46
2017-10-14 01:00:00 20.4 0 Calma 4 Nordeste 0 1012.9 1.1 43
2017-10-14 00:00:00 21.9 0 Calma 8 Sur 0 1012.7 1.4 37
2017-10-13 23:00:00 23.5 7 Sur 13 Sur 0 1012.2 1.3 32
2017-10-13 22:00:00 23.6 4 Sur -- -- 0 1011.8 1 35
2017-10-13 21:00:00 26.2 0 Calma 4 Sudoeste 0 1011.3 0.5 27
2017-10-13 20:00:00 28.9 4 Oeste 13 Oeste 0 1010.9 -0.4 22
2017-10-13 19:00:00 32.4 8 Oeste 17 Oeste 0 1010.8 -0.7 18
2017-10-13 18:00:00 32.9 12 Oeste 37 Sur 0 1010.8 -1.4 16
2017-10-13 17:00:00 34.4 13 Oeste 21 Oeste 0 1011.3 -1.9 15
2017-10-13 16:00:00 33.9 12 Oeste 21 Oeste 0 1011.5 -2.4 14
2017-10-13 15:00:00 33.8 5 Oeste 13 Oeste 0 1012.2 -2.1 14
2017-10-13 14:00:00 31.3 0 Calma 11 Este 0 1013.2 -1.1 20
2017-10-13 13:00:00 28.4 7 Este 18 Este 0 1013.9 -0.1 25
2017-10-13 12:00:00 26 13 Este 21 Nordeste 0 1014.3 0.8 28
2017-10-13 11:00:00 21.7 12 Este 17 Este 0 1014.3 0.9 36
2017-10-13 10:00:00 18.6 8 Este 15 Este 0 1014 0.8 44
2017-10-13 09:00:00 14.7 5 Este 8 Este 0 1013.5 0.6 57
2017-10-13 08:00:00 15.4 3 Este 8 Este 0 1013.4 0.4 52
2017-10-13 07:00:00 15.6 6 Este 11 Este 0 1013.2 0.1 53
2017-10-13 06:00:00 16 0 Calma 11 Este 0 1012.9 -0.2 51
2017-10-13 05:00:00 16.5 8 Este 13 Este 0 1013 0 49
2017-10-13 04:00:00 17 7 Este 11 Este 0 1013.1 0.2 47
2017-10-13 03:00:00 17.6 0 Calma 9 Nordeste 0 1013.1 0.4 41
2017-10-13 02:00:00 17.9 0 Calma 5 Nordeste 0 1013 0.4 37
2017-10-13 01:00:00 20.2 3 Este 8 Este 0 1012.9 0.7 32
2017-10-13 00:00:00 22.3 3 Norte 13 Norte 0 1012.7 1 28
2017-10-12 23:00:00 25 5 Norte 17 Norte 0 1012.6 0.9 23
2017-10-12 22:00:00 28.1 7 Sudeste 28 Sur 0 1012.2 0.8 19
2017-10-12 21:00:00 28.7 4 Este 28 Sudeste 0 1011.7 0.6 19
2017-10-12 20:00:00 29.8 0 Calma 22 Oeste 0 1011.7 0.2 19
2017-10-12 19:00:00 31.2 6 Este 15 Nordeste 0 1011.4 -0.4 19
2017-10-12 18:00:00 33.2 6 Norte 11 Noroeste 0 1011.1 -1.5 17
2017-10-12 17:00:00 32 2 Norte 5 Norte 0 1011.5 -1.9 19
2017-10-12 16:00:00 33.7 2 Sudeste 13 Norte 0 1011.8 -2.3 15
2017-10-12 15:00:00 30.5 5 Nordeste 13 Nordeste 0 1012.6 -1.5 19
2017-10-12 14:00:00 27.3 8 Nordeste 18 Nordeste 0 1013.4 -0.4 24
2017-10-12 13:00:00 25.9 9 Nordeste 17 Sudeste 0 1014.1 0.5 27
2017-10-12 12:00:00 25.6 9 Este 21 Este 0 1014.1 1.2 27
2017-10-12 11:00:00 23.2 15 Este 26 Este 0 1013.8 1.4 30
2017-10-12 10:00:00 20.9 12 Este 21 Este 0 1013.6 1.4 35
2017-10-12 09:00:00 18.7 12 Este 21 Este 0 1012.9 1.2 40
2017-10-12 08:00:00 18.3 10 Este 17 Este 0 1012.4 0.9 40
2017-10-12 07:00:00 18 8 Este 15 Este 0 1012.2 0.9 40
2017-10-12 06:00:00 17.4 7 Este 17 Nordeste 0 1011.7 0.5 43
2017-10-12 05:00:00 18.2 8 Nordeste 15 Este 0 1011.5 0.2 42
2017-10-12 04:00:00 18.5 6 Este 13 Nordeste 0 1011.3 -0.1 43
2017-10-12 03:00:00 20.1 11 Este 17 Este 0 1011.2 -0.4 40
2017-10-12 02:00:00 19.5 8 Este 13 Este 0 1011.3 -0.4 41
2017-10-12 01:00:00 20.1 6 Norte 8 Nordeste 0 1011.4 0.6 38
2017-10-12 00:00:00 23.3 0 Calma 15 Sudoeste 0 1011.6 1.8 31
2017-10-11 23:00:00 23.8 6 Sudoeste 13 Sudoeste 0 1011.7 2.6 31
2017-10-11 22:00:00 24.6 0 Calma 8 Norte 0 1010.8 2.1 28
2017-10-11 21:00:00 24.5 0 Calma 18 Sur 0 1009.8 1.2 29
2017-10-11 20:00:00 28.9 0 Calma 2 Nordeste 0 1009.1 0.5 24
2017-10-11 19:00:00 33.1 0 Calma 8 Noroeste 0 1008.7 -0.2 14
2017-10-11 18:00:00 33.7 0 Calma 13 Noroeste 0 1008.6 -1 14
2017-10-11 17:00:00 34 0 Calma 15 Sudeste 0 1008.6 -1.7 15
2017-10-11 16:00:00 33.3 2 Nordeste 17 Este 0 1008.9 -2 16
2017-10-11 15:00:00 32.6 2 Sudeste 17 Nordeste 0 1009.6 -1.8 18
2017-10-11 14:00:00 30.1 6 Nordeste 26 Este 0 1010.3 -1.3 22
2017-10-11 13:00:00 28 12 Este 26 Este 0 1010.9 -0.4 26
2017-10-11 12:00:00 25.5 17 Este 24 Este 0 1011.4 0.9 31
2017-10-11 11:00:00 22.1 12 Este 22 Este 0 1011.6 1.5 35
2017-10-11 10:00:00 19 6 Este 9 Este 0 1011.3 1.4 44
2017-10-11 09:00:00 14.6 2 Este 11 Este 0 1010.5 0.8 59
2017-10-11 08:00:00 14.1 3 Este 8 Este 0 1010.1 0.3 61
2017-10-11 07:00:00 14.3 0 Calma 8 Este 0 1009.9 0.1 63
2017-10-11 06:00:00 14.3 0 Calma -- -- 0 1009.7 -0.1 64
2017-10-11 05:00:00 14.7 0 Calma -- -- 0 1009.8 0.3 57
2017-10-11 04:00:00 15.5 0 Calma -- -- 0 1009.8 0.5 57
2017-10-11 03:00:00 16.3 0 Calma -- -- 0 1009.8 0.7 50
2017-10-11 02:00:00 16.8 0 Calma -- -- 0 1009.5 0.9 49
2017-10-11 01:00:00 17.4 0 Calma 13 Oeste 0 1009.3 1.6 48
2017-10-11 00:00:00 19.6 0 Calma 5 Noroeste 0 1009.1 2 41
2017-10-10 23:00:00 20.7 5 Noroeste 15 Noroeste 0 1008.6 1.9 38
2017-10-10 22:00:00 22.2 0 Calma 4 Sur 0 1007.7 1.3 36
2017-10-10 21:00:00 25.2 0 Calma 8 Noroeste 0 1007.1 0.9 28
2017-10-10 20:00:00 27.7 2 Oeste 13 Oeste 0 1006.7 0.4 24
2017-10-10 19:00:00 31.8 4 Oeste 18 Oeste 0 1006.4 -0.4 19
2017-10-10 18:00:00 33.2 9 Oeste 33 Oeste 0 1006.2 -1.3 16
2017-10-10 17:00:00 33.3 9 Oeste 18 Oeste 0 1006.3 -2.2 16
2017-10-10 16:00:00 33.4 0 Calma 8 Oeste 0 1006.8 -2.4 18
2017-10-10 15:00:00 31.1 0 Calma 13 Sudeste 0 1007.5 -2.1 22
2017-10-10 14:00:00 30 0 Calma 15 Este 0 1008.5 -1.3 24
2017-10-10 13:00:00 26.9 7 Este 18 Este 0 1009.2 -0.3 29
2017-10-10 12:00:00 24.5 12 Este 18 Este 0 1009.6 0.7 30
2017-10-10 11:00:00 21.5 12 Este 18 Nordeste 0 1009.8 1.5 34
2017-10-10 10:00:00 18.8 8 Este 13 Este 0 1009.5 1.6 43
2017-10-10 09:00:00 15 2 Este 5 Este 0 1008.9 1.2 58
2017-10-10 08:00:00 13.8 0 Calma 4 Este 0 1008.3 0.7 64
2017-10-10 07:00:00 14.9 2 Este 5 Este 0 1007.9 0.2 59
2017-10-10 06:00:00 15 0 Calma 4 Nordeste 0 1007.7 0.1 61
2017-10-10 05:00:00 15 0 Calma 4 Sur 0 1007.6 0.1 60
2017-10-10 04:00:00 15.4 0 Calma 4 Sudoeste 0 1007.7 0 56
2017-10-10 03:00:00 16.4 0 Calma -- -- 0 1007.6 0.4 51
2017-10-10 02:00:00 18.1 0 Calma 2 Este 0 1007.5 0.5 43
2017-10-10 01:00:00 19.2 0 Calma 11 Noroeste 0 1007.7 1.2 39
2017-10-10 00:00:00 19.9 4 Sudoeste 11 Oeste 0 1007.2 1 38
2017-10-09 23:00:00 18.9 7 Oeste 11 Oeste 0 1007 1.3 41
2017-10-09 22:00:00 21.8 0 Calma 4 Sudoeste 0 1006.5 1.2 35
2017-10-09 21:00:00 24.7 0 Calma 2 Sur 0 1006.2 0.8 25
2017-10-09 20:00:00 28.3 0 Calma 8 Sudoeste 0 1005.7 -0.1 22
2017-10-09 19:00:00 32.7 5 Sur 15 Sur 0 1005.3 -1.1 13
2017-10-09 18:00:00 33.6 2 Sur 21 Sudoeste 0 1005.4 -1.8 13
2017-10-09 17:00:00 33.5 9 Sudoeste 17 Sur 0 1005.8 -2.5 15
2017-10-09 16:00:00 31.7 7 Sur 17 Oeste 0 1006.4 -2.6 27
2017-10-09 15:00:00 31.4 3 Sudeste 13 Sudeste 0 1007.2 -2.2 28
2017-10-09 14:00:00 29 2 Este 11 Este 0 1008.3 -1.3 34
2017-10-09 13:00:00 26.6 2 Este 11 Este 0 1009 -0.4 43
2017-10-09 12:00:00 24.3 5 Nordeste 15 Este 0 1009.4 0.4 47
2017-10-09 11:00:00 21.9 9 Este 15 Este 0 1009.6 1.2 39
2017-10-09 10:00:00 18.6 6 Este 13 Nordeste 0 1009.4 1.4 54
2017-10-09 09:00:00 14 0 Calma -- -- 0 1009 1.1 71
2017-10-09 08:00:00 13.6 0 Calma -- -- 0 1008.4 0.7 71
2017-10-09 07:00:00 14.2 0 Calma -- -- 0 1008 0.1 69
2017-10-09 06:00:00 15 0 Calma -- -- 0 1007.9 -0.2 71
2017-10-09 05:00:00 15.4 0 Calma -- -- 0 1007.7 -0.1 65
2017-10-09 04:00:00 16.1 0 Calma -- -- 0 1007.9 0.3 65
2017-10-09 03:00:00 17.1 0 Calma -- -- 0 1008.1 0.8 60
2017-10-09 02:00:00 18.2 0 Calma 11 Oeste 0 1007.8 0.7 58
2017-10-09 01:00:00 18.8 10 Oeste 13 Oeste 0 1007.6 0.8 54
2017-10-09 00:00:00 19.5 0 Calma 4 Sudeste 0 1007.3 0.7 50
2017-10-08 23:00:00 21.4 0 Calma -- -- 0 1007.1 1.1 47
2017-10-08 22:00:00 22.9 0 Calma -- -- 0 1006.8 1 45
2017-10-08 21:00:00 25.2 0 Calma -- -- 0 1006.6 0.7 40
2017-10-08 20:00:00 28 0 Calma -- -- 0 1006 -0.4 31
2017-10-08 19:00:00 30.5 0 Calma 8 Sudeste 0 1005.8 -1.1 27
2017-10-08 18:00:00 32.2 3 Sur 13 Sur 0 1005.9 -1.8 25
2017-10-08 17:00:00 32.5 4 Sur 15 Sudoeste 0 1006.4 -2.4 24
2017-10-08 16:00:00 32 5 Sur 15 Sur 0 1006.9 -2.6 26
2017-10-08 15:00:00 30.8 4 Oeste 21 Sur 0 1007.7 -2.2 29
2017-10-08 14:00:00 28.8 5 Nordeste 15 Este 0 1008.8 -1.1 34
2017-10-08 13:00:00 27.7 4 Nordeste 17 Nordeste 0 1009.5 -0.2 37
2017-10-08 12:00:00 25.7 5 Este 21 Norte 0 1009.9 0.8 46
2017-10-08 11:00:00 24.1 2 Sudeste 8 Sudeste 0 1009.9 1.1 51
2017-10-08 10:00:00 21.3 0 Calma -- -- 0 1009.7 1.1 59
2017-10-08 09:00:00 16.3 0 Calma -- -- 0 1009.1 0.8 72
2017-10-08 08:00:00 16.8 0 Calma -- -- 0 1008.8 0.6 74
2017-10-08 07:00:00 17 0 Calma -- -- 0 1008.6 0.3 73
2017-10-08 06:00:00 16.9 0 Calma 5 Oeste 0 1008.3 -0.2 68
2017-10-08 05:00:00 18.1 0 Calma -- -- 0 1008.2 -0.3 66
2017-10-08 04:00:00 19.5 3 Sudoeste 8 Sudoeste 0 1008.3 -0.1 63
2017-10-08 03:00:00 20.5 6 Oeste 15 Oeste 0 1008.5 0.4 60
2017-10-08 02:00:00 21.1 5 Oeste 15 Oeste 0 1008.5 1 58
2017-10-08 01:00:00 22.3 8 Oeste 15 Oeste 0 1008.4 1.5 54
2017-10-08 00:00:00 22.4 4 Oeste 18 Sur 0 1008.1 2.1 52
2017-10-07 23:00:00 24.2 9 Sur 26 Sur 0 1007.5 2.4 46
2017-10-07 22:00:00 25.6 6 Sur 28 Sur 0 1006.9 2.4 39
2017-10-07 21:00:00 27.2 5 Oeste 30 Sudoeste 0 1006 1.7 34
2017-10-07 20:00:00 29.4 21 Sur 33 Sur 0 1005.1 0.5 29
2017-10-07 19:00:00 33.1 16 Sudoeste 26 Sudoeste 0 1004.5 -0.6 22
2017-10-07 18:00:00 34.6 14 Sur 22 Sur 0 1004.3 -1.7 20
2017-10-07 17:00:00 34.8 8 Oeste 26 Oeste 0 1004.6 -2.1 20
2017-10-07 16:00:00 34.9 9 Sudoeste 21 Sudoeste 0 1005.1 -2.1 19
2017-10-07 15:00:00 34 0 Calma 17 Este 0 1006 -1.5 17
2017-10-07 14:00:00 31.9 5 Este 21 Este 0 1006.7 -0.7 17
2017-10-07 13:00:00 29.6 15 Este 26 Este 0 1007.2 0 19
2017-10-07 12:00:00 27.3 22 Nordeste 30 Nordeste 0 1007.5 0.8 22
2017-10-07 11:00:00 24.2 21 Nordeste 28 Este 0 1007.4 0.9 25
2017-10-07 10:00:00 21.2 14 Este 21 Este 0 1007.2 1.1 37
2017-10-07 09:00:00 17.9 6 Este 11 Nordeste 0 1006.7 0.6 54
2017-10-07 08:00:00 17.7 0 Calma 5 Este 0 1006.5 0.5 59
2017-10-07 07:00:00 18.4 5 Este 18 Este 0 1006.1 -0.2 55
2017-10-07 06:00:00 18.4 12 Este 17 Este 0 1006.1 -0.3 59
2017-10-07 05:00:00 18.1 4 Este 8 Este 0 1006 -0.3 61
2017-10-07 04:00:00 18.9 0 Calma 5 Nordeste 0 1006.3 0.3 60
2017-10-07 03:00:00 20.2 2 Sur 5 Sur 0 1006.4 0.7 53
2017-10-07 02:00:00 21.8 0 Calma 17 Oeste 0 1006.3 0.9 48
2017-10-07 01:00:00 23 14 Oeste 22 Oeste 0 1006 1 45
2017-10-07 00:00:00 23.7 9 Sudoeste 15 Sudoeste 0 1005.7 1 42
2017-10-06 23:00:00 24.2 0 Calma 11 Oeste 0 1005.4 1.1 40
2017-10-06 22:00:00 24.9 4 Oeste 11 Oeste 0 1005 0.8 40
2017-10-06 21:00:00 26.9 3 Oeste 5 Oeste 0 1004.7 0.2 31
2017-10-06 20:00:00 31.4 3 Oeste 15 Oeste 0 1004.3 -0.5 23
2017-10-06 19:00:00 34.6 9 Oeste 18 Sudoeste 0 1004.2 -1.3 19
2017-10-06 18:00:00 35.4 8 Oeste 21 Oeste 0 1004.5 -2.1 18
2017-10-06 17:00:00 35.3 9 Sudoeste 24 Oeste 0 1004.8 -2.7 19
2017-10-06 16:00:00 35 7 Sudoeste 18 Sur 0 1005.5 -2.9 20
2017-10-06 15:00:00 33 3 Sudoeste 13 Sudoeste 0 1006.6 -2.5 24
2017-10-06 14:00:00 31.4 3 Sudoeste 13 Oeste 0 1007.5 -1.7 26
2017-10-06 13:00:00 29.5 3 Sur 11 Sur 0 1008.4 -0.5 29
2017-10-06 12:00:00 26.7 0 Calma 13 Este 0 1009.1 0.6 36
2017-10-06 11:00:00 23.4 6 Este 15 Este 0 1009.2 0.9 42
2017-10-06 10:00:00 20.3 8 Este 13 Este 0 1008.9 0.8 51
2017-10-06 09:00:00 16 0 Calma -- -- 0 1008.5 0.6 65
2017-10-06 08:00:00 14.4 0 Calma -- -- 0 1008.3 0.2 68
2017-10-06 07:00:00 14.8 0 Calma -- -- 0 1008.1 -0.3 67
2017-10-06 06:00:00 15.4 0 Calma 2 Nordeste 0 1007.9 -0.6 68
2017-10-06 05:00:00 16.4 0 Calma 4 Nordeste 0 1008.1 -0.5 62
2017-10-06 04:00:00 17.2 0 Calma 2 Sudoeste 0 1008.4 -0.2 58
2017-10-06 03:00:00 18.2 0 Calma 5 Sudoeste 0 1008.5 -0.2 56
2017-10-06 02:00:00 19.6 2 Sudoeste 8 Sur 0 1008.6 0 52
2017-10-06 01:00:00 20.7 -- -- -- -- 0 1008.6 0.7 49
2017-10-06 00:00:00 21.8 3 Sudoeste 13 Oeste 0 1008.7 1.5 47
2017-10-05 23:00:00 24.1 11 Oeste 15 Oeste 0 1008.6 2 41
2017-10-05 22:00:00 25.6 9 Oeste 21 Sudoeste 0 1007.9 1.3 36
2017-10-05 21:00:00 26.6 7 Sudoeste 15 Sudoeste 0 1007.2 0.4 25
2017-10-05 20:00:00 30.7 4 Sur 18 Sudeste 0 1006.6 -0.6 15
2017-10-05 19:00:00 33.7 7 Sudeste 22 Este 0 1006.6 -1.3 14
2017-10-05 18:00:00 34.5 6 Este 26 Este 0 1006.8 -2.1 15
2017-10-05 17:00:00 34.2 13 Este 28 Este 0 1007.2 -2.9 15
2017-10-05 16:00:00 33.6 6 Este 28 Este 0 1007.9 -3.1 20
2017-10-05 15:00:00 32 12 Este 24 Este 0 1008.9 -2.6 26
2017-10-05 14:00:00 30.8 9 Este 24 Nordeste 0 1010.1 -1.9 31
2017-10-05 13:00:00 29.6 11 Este 22 Este 0 1011 -0.7 35
2017-10-05 12:00:00 27.2 8 Este 24 Este 0 1011.5 0.2 44
2017-10-05 11:00:00 24.6 12 Este 17 Este 0 1012 0.7 51
2017-10-05 10:00:00 22.1 4 Este 8 Este 0 1011.7 0.8 60
2017-10-05 09:00:00 18.3 0 Calma -- -- 0 1011.3 0.6 72
2017-10-05 08:00:00 16.6 0 Calma 5 Sur 0 1011.3 0.6 75
2017-10-05 07:00:00 17.7 0 Calma 5 Sur 0 1010.9 -0.2 72
2017-10-05 06:00:00 18.1 0 Calma 4 Sur 0 1010.7 -0.5 71
2017-10-05 05:00:00 18.6 0 Calma 2 Sudoeste 0 1010.7 -0.8 67
2017-10-05 04:00:00 19.1 0 Calma 4 Sudoeste 0 1011.1 -0.4 67
2017-10-05 03:00:00 20.6 0 Calma 8 Sur 0 1011.2 -0.2 62
2017-10-05 02:00:00 21.6 0 Calma 13 Sudoeste 0 1011.5 0.4 60
2017-10-05 01:00:00 22.6 5 Sudoeste 13 Oeste 0 1011.5 1 59
2017-10-05 00:00:00 23.9 8 Oeste 18 Oeste 0 1011.4 1.8 54
2017-10-04 23:00:00 24.6 6 Oeste 32 Oeste 0 1011.1 2.1 51
2017-10-04 22:00:00 25.4 12 Oeste 37 Sur 0 1010.5 1.8 46
2017-10-04 21:00:00 26.8 20 Sur 32 Sur 0 1009.6 1.1 41
2017-10-04 20:00:00 28.6 20 Sur 32 Sur 0 1009 0.2 37
2017-10-04 19:00:00 31.6 21 Sur 32 Sur 0 1008.7 -0.4 31
2017-10-04 18:00:00 33.6 10 Sudoeste 21 Sudoeste 0 1008.5 -0.8 27
2017-10-04 17:00:00 33.9 11 Sur 24 Sudoeste 0 1008.8 -1.6 27
2017-10-04 16:00:00 34.2 9 Sudoeste 22 Sudoeste 0 1009.1 -1.9 27
2017-10-04 15:00:00 33.4 3 Sudoeste 18 Sudoeste 0 1009.3 -1.9 28
2017-10-04 14:00:00 32 0 Calma 18 Sur 0 1010.4 -1 31
2017-10-04 13:00:00 30.3 5 Sudeste 17 Este 0 1011 -0.1 34
2017-10-04 12:00:00 28.5 5 Sudeste 15 Sudeste 0 1011.2 0.8 39
2017-10-04 11:00:00 26.5 3 Sur 8 Sur 0 1011.4 1.5 43
2017-10-04 10:00:00 23.3 0 Calma 4 Este 0 1011.1 1.6 53
2017-10-04 09:00:00 18.6 0 Calma 8 Sudoeste 0 1010.4 1.1 66
2017-10-04 08:00:00 17.7 0 Calma 4 Nordeste 0 1009.9 0.9 71
2017-10-04 07:00:00 17.9 0 Calma 4 Sudoeste 0 1009.5 0.4 67
2017-10-04 06:00:00 18.2 0 Calma -- -- 0 1009.3 0 69
2017-10-04 05:00:00 19.2 0 Calma 5 Oeste 0 1009 -0.1 65
2017-10-04 04:00:00 19.8 0 Calma 5 Sudoeste 0 1009.1 -0.3 61
2017-10-04 03:00:00 20.5 0 Calma 4 Norte 0 1009.3 0.4 59
2017-10-04 02:00:00 21.2 3 Oeste 5 Sudoeste 0 1009.1 0.6 57
2017-10-04 01:00:00 22.6 0 Calma 9 Sudoeste 0 1009.4 1.6 51
2017-10-04 00:00:00 23.2 8 Sudoeste 11 Oeste 0 1008.9 1.8 50
2017-10-03 23:00:00 25.4 0 Calma 15 Oeste 0 1008.5 2 41
2017-10-03 22:00:00 27.1 5 Oeste 17 Sudoeste 0 1007.8 1.4 37
2017-10-03 21:00:00 27.3 6 Oeste 13 Oeste 0 1007.1 0.8 34
2017-10-03 20:00:00 30.9 8 Oeste 17 Oeste 0 1006.5 0 28
2017-10-03 19:00:00 33.5 8 Oeste 17 Oeste 0 1006.4 -1.1 23
2017-10-03 18:00:00 34.7 0 Calma 13 Sudeste 0 1006.3 -2.2 21
2017-10-03 17:00:00 34.5 4 Sur 17 Sur 0 1006.5 -3.2 23
2017-10-03 16:00:00 32.9 0 Calma 13 Norte 0 1007.5 -3 26
2017-10-03 15:00:00 32.6 5 Sur 15 Sur 0 1008.5 -2.6 28
2017-10-03 14:00:00 30.7 4 Sudoeste 13 Sudoeste 0 1009.7 -1.5 32
2017-10-03 13:00:00 29.4 2 Sudoeste 11 Sudoeste 0 1010.5 -0.5 37
2017-10-03 12:00:00 27.6 2 Sudeste 13 Sudeste 0 1011.1 0.5 43
2017-10-03 11:00:00 25.6 0 Calma 4 Este 0 1011.2 1 48
2017-10-03 10:00:00 21.9 0 Calma 2 Sur 0 1011 1.2 58
2017-10-03 09:00:00 17.8 0 Calma -- -- 0 1010.6 0.9 71
2017-10-03 08:00:00 16.9 0 Calma 4 Sudoeste 0 1010.2 0.5 75
2017-10-03 07:00:00 17.6 0 Calma 4 Nordeste 0 1009.8 -0.2 71
2017-10-03 06:00:00 18 0 Calma 2 Sur 0 1009.7 -0.5 73
2017-10-03 05:00:00 18.3 0 Calma 5 Oeste 0 1009.7 -0.5 68
2017-10-03 04:00:00 19.8 4 Sur 8 Oeste 0 1010 -0.2 65
2017-10-03 03:00:00 20.1 7 Oeste 15 Oeste 0 1010.2 0.2 63
2017-10-03 02:00:00 20.9 9 Oeste 15 Oeste 0 1010.2 0.5 59
2017-10-03 01:00:00 22.3 6 Sudoeste 15 Oeste 0 1010.2 1.1 54
2017-10-03 00:00:00 23.5 11 Oeste 17 Oeste 0 1010 1.9 50
2017-10-02 23:00:00 25.5 2 Sudoeste 18 Sur 0 1009.7 2.3 46
2017-10-02 22:00:00 26.7 6 Sudoeste 18 Sur 0 1009.1 2 41
2017-10-02 21:00:00 28.6 4 Norte 13 Este 0 1008.1 1.2 28
2017-10-02 20:00:00 31.6 10 Este 24 Este 0 1007.4 0.1 23
2017-10-02 19:00:00 34.1 13 Este 28 Este 0 1007.1 -0.9 21
2017-10-02 18:00:00 34.6 13 Este 22 Nordeste 0 1006.9 -1.9 21
2017-10-02 17:00:00 34.9 10 Este 26 Nordeste 0 1007.3 -2.5 22
2017-10-02 16:00:00 34.3 13 Este 32 Este 0 1008 -2.6 23
2017-10-02 15:00:00 33.5 15 Nordeste 30 Nordeste 0 1008.8 -2.5 24
2017-10-02 14:00:00 32.5 20 Este 33 Este 0 1009.8 -1.5 27
2017-10-02 13:00:00 31 18 Este 30 Este 0 1010.6 -0.6 30
2017-10-02 12:00:00 28.8 16 Este 26 Este 0 1011.3 0.5 32
2017-10-02 11:00:00 26.4 0 Calma 5 Este 0 1011.3 0.9 36
2017-10-02 10:00:00 22.4 0 Calma -- -- 0 1011.2 1 48
2017-10-02 09:00:00 17.8 0 Calma -- -- 0 1010.8 0.7 58
2017-10-02 08:00:00 17.2 0 Calma -- -- 0 1010.4 0.8 60
2017-10-02 07:00:00 17.9 0 Calma 5 Sur 0 1010.2 1 59
2017-10-02 06:00:00 19 0 Calma 15 Noroeste 0 1010.1 0.7 56
2017-10-02 05:00:00 18.7 2 Noroeste 11 Noroeste 0 1009.6 0.6 57
2017-10-02 04:00:00 19.7 0 Calma 5 Sur 0 1009.2 0.1 53
2017-10-02 03:00:00 21.2 0 Calma 5 Nordeste 0 1009.4 0.5 48
2017-10-02 02:00:00 22.6 3 Sudeste 13 Este 0 1009 0.4 44
2017-10-02 01:00:00 23.9 12 Este 15 Este 0 1009.1 0.9 41
2017-10-02 00:00:00 25.1 5 Sur 15 Nordeste 0 1008.9 1.6 37
2017-10-01 23:00:00 26.9 12 Nordeste 18 Nordeste 0 1008.6 2 33
2017-10-01 22:00:00 28.2 13 Este 21 Este 0 1008.2 2 31
2017-10-01 21:00:00 28 9 Norte 13 Norte 0 1007.3 1.3 30
2017-10-01 20:00:00 31.7 0 Calma 8 Sur 0 1006.6 0.4 24
2017-10-01 19:00:00 34.7 3 Sur 13 Oeste 0 1006.2 -0.4 19
2017-10-01 18:00:00 34.8 5 Sudoeste 15 Sudoeste 0 1006 -1.5 19
2017-10-01 17:00:00 34.8 5 Sur 17 Nordeste 0 1006.2 -1.9 19
2017-10-01 16:00:00 34.6 6 Este 18 Este 0 1006.6 -2 19
2017-10-01 15:00:00 32.7 10 Este 24 Nordeste 0 1007.5 -1.6 23
2017-10-01 14:00:00 31.5 13 Este 22 Este 0 1008.1 -0.9 25
2017-10-01 13:00:00 29.7 11 Nordeste 17 Nordeste 0 1008.6 -0.1 28
2017-10-01 12:00:00 27 6 Este 17 Este 0 1009.1 0.9 34
2017-10-01 11:00:00 23.9 7 Este 13 Este 0 1009 1.3 44
2017-10-01 10:00:00 20.3 0 Calma -- -- 0 1008.7 1.2 56
2017-10-01 09:00:00 17.1 0 Calma -- -- 0 1008.2 1 65
2017-10-01 08:00:00 16.5 0 Calma -- -- 0 1007.7 1 64
2017-10-01 07:00:00 17.3 0 Calma -- -- 0 1007.5 0.7 65
2017-10-01 06:00:00 17.4 0 Calma -- -- 0 1007.2 0.3 63
2017-10-01 05:00:00 18.1 0 Calma -- -- 0 1006.7 0 61
2017-10-01 04:00:00 18.6 0 Calma 5 Oeste 0 1006.8 0.2 57
2017-10-01 03:00:00 19.8 0 Calma -- -- 0 1006.9 0.6 55
2017-10-01 02:00:00 21.2 0 Calma 8 Sudeste 0 1006.7 0.2 50
2017-10-01 01:00:00 21.3 6 Sudoeste 11 Sudoeste 0 1006.6 0.4 50
2017-10-01 00:00:00 22.5 0 Calma 8 Sudoeste 0 1006.3 0.7 49
2017-09-30 23:00:00 23.9 0 Calma 8 Nordeste 0 1006.5 1.1 45
2017-09-30 22:00:00 25.9 6 Sur 8 Sur 0 1006.2 1.2 39
2017-09-30 21:00:00 27.2 4 Oeste 8 Oeste 0 1005.6 0.4 34
2017-09-30 20:00:00 30.3 6 Oeste 15 Oeste 0 1005.4 -0.5 28
2017-09-30 19:00:00 32.5 5 Oeste 17 Oeste 0 1005 -1.5 25
2017-09-30 18:00:00 32.7 8 Sudoeste 18 Sudoeste 0 1005.2 -2.5 26
2017-09-30 17:00:00 32.9 6 Sudoeste 15 Oeste 0 1005.9 -2.8 28
2017-09-30 16:00:00 32 3 Oeste 21 Oeste 0 1006.5 -3.1 31
2017-09-30 15:00:00 30.3 5 Oeste 17 Oeste 0 1007.7 -2.5 35
2017-09-30 14:00:00 28.3 3 Oeste 17 Sudoeste 0 1008.7 -1.7 41
2017-09-30 13:00:00 26.6 4 Sudoeste 17 Sudoeste 0 1009.6 -0.7 46
2017-09-30 12:00:00 25.7 5 Sudoeste 13 Oeste 0 1010.2 0.1 50
2017-09-30 11:00:00 24.4 0 Calma 5 Oeste 0 1010.4 0.6 53
2017-09-30 10:00:00 20.8 0 Calma 4 Oeste 0 1010.3 0.8 61
2017-09-30 09:00:00 17.3 0 Calma 4 Sur 0 1010.1 0.6 73
2017-09-30 08:00:00 17.1 3 Sur 5 Sur 0 1009.8 0.4 72
2017-09-30 07:00:00 17.5 0 Calma 5 Sudoeste 0 1009.5 0 70
2017-09-30 06:00:00 18.5 3 Oeste 11 Oeste 0 1009.5 0.1 67
2017-09-30 05:00:00 19.1 8 Oeste 11 Oeste 0 1009.4 0.1 65
2017-09-30 04:00:00 19.7 5 Oeste 13 Oeste 0 1009.5 0.1 59
2017-09-30 03:00:00 20.7 5 Oeste 11 Sudoeste 0 1009.4 0 57
2017-09-30 02:00:00 21.1 8 Oeste 13 Oeste 0 1009.3 0.4 57
2017-09-30 01:00:00 22.9 4 Oeste 15 Oeste 0 1009.4 1 53
2017-09-30 00:00:00 23.7 9 Oeste 17 Oeste 0 1009.4 1.8 50
2017-09-29 23:00:00 25.5 9 Oeste 18 Oeste 0 1008.9 1.7 44
2017-09-29 22:00:00 26.3 11 Sudoeste 18 Sur 0 1008.4 1.4 40
2017-09-29 21:00:00 27.1 6 Oeste 11 Oeste 0 1007.6 0.6 36
2017-09-29 20:00:00 30.3 5 Oeste 11 Oeste 0 1007.2 -0.2 30
2017-09-29 19:00:00 32.5 9 Oeste 15 Oeste 0 1007 -1.2 27
2017-09-29 18:00:00 33.3 2 Sudoeste 15 Sudoeste 0 1007 -2.2 25
2017-09-29 17:00:00 33.2 7 Sudoeste 18 Oeste 0 1007.4 -2.8 26
2017-09-29 16:00:00 32.3 3 Noroeste 15 Sudoeste 0 1008.2 -2.7 27
2017-09-29 15:00:00 31 5 Sudoeste 22 Oeste 0 1009.2 -2.5 32
2017-09-29 14:00:00 30.2 6 Oeste 18 Oeste 0 1010.2 -1.6 34
2017-09-29 13:00:00 28 4 Sudeste 15 Este 0 1010.9 -0.5 43
2017-09-29 12:00:00 26.2 0 Calma 8 Este 0 1011.7 0.8 49
2017-09-29 11:00:00 23.6 0 Calma 5 Norte 0 1011.8 1.7 55
2017-09-29 10:00:00 21.3 0 Calma -- -- 0 1011.4 1.3 58
2017-09-29 09:00:00 18.5 0 Calma -- -- 0 1010.9 0.9 66
2017-09-29 08:00:00 18.5 0 Calma -- -- 0 1010.1 -0.3 64
2017-09-29 07:00:00 19.7 0 Calma 4 Oeste 0 1010.1 -0.7 59
2017-09-29 06:00:00 20.6 3 Oeste 15 Oeste 0 1010 -1.2 55
2017-09-29 05:00:00 20.5 0 Calma 8 Oeste 0 1010.4 -0.8 56
2017-09-29 04:00:00 20.5 7 Oeste 15 Oeste 0 1010.8 -0.4 53
2017-09-29 03:00:00 21.8 9 Oeste 15 Oeste 0 1011.2 0.2 51
2017-09-29 02:00:00 22.8 11 Oeste 17 Oeste 0 1011.2 0.5 47
2017-09-29 01:00:00 24 9 Oeste 17 Oeste 0 1011.2 1.2 38
2017-09-29 00:00:00 24.6 12 Oeste 21 Oeste 0 1011 1.8 33
2017-09-28 23:00:00 25.3 13 Oeste 26 Oeste 0 1010.7 1.9 31
2017-09-28 22:00:00 26.4 14 Oeste 24 Sudoeste 0 1010 1.6 32
2017-09-28 21:00:00 27.7 12 Oeste 26 Oeste 0 1009.2 0.8 33
2017-09-28 20:00:00 28.9 15 Oeste 28 Oeste 0 1008.8 0.2 33
2017-09-28 19:00:00 30.2 14 Oeste 21 Oeste 0 1008.4 -0.8 33
2017-09-28 18:00:00 31.2 4 Sur 15 Sur 0 1008.4 -1.4 29
2017-09-28 17:00:00 33.1 4 Oeste 28 Sudoeste 0 1008.6 -1.9 25
2017-09-28 16:00:00 31.2 6 Este 18 Este 0 1009.2 -1.9 29
2017-09-28 15:00:00 32.8 9 Este 18 Este 0 1009.8 -1.7 28
2017-09-28 14:00:00 31.9 10 Sur 22 Sur 0 1010.5 -1.3 31
2017-09-28 13:00:00 30.3 5 Este 21 Nordeste 0 1011.1 -0.6 33
2017-09-28 12:00:00 28 6 Este 13 Este 0 1011.5 0.3 40
2017-09-28 11:00:00 26 5 Este 15 Nordeste 0 1011.8 1.1 45
2017-09-28 10:00:00 21 0 Calma -- -- 0 1011.7 1.4 63
2017-09-28 09:00:00 19 0 Calma -- -- 0 1011.2 1.1 66
2017-09-28 08:00:00 18.5 0 Calma -- -- 0 1010.7 0.9 68
2017-09-28 07:00:00 18.3 0 Calma -- -- 0 1010.3 0.4 70
2017-09-28 06:00:00 19.1 0 Calma -- -- 0 1010.1 0.1 67
2017-09-28 05:00:00 20.1 0 Calma 8 Noroeste 0 1009.8 -0.5 64
2017-09-28 04:00:00 21.2 6 Oeste 11 Sur 0 1009.9 -0.3 62
2017-09-28 03:00:00 21.5 6 Nordeste 13 Norte 0 1010 -0.3 62
2017-09-28 02:00:00 21.7 4 Sur 8 Sur 0 1010.3 0.6 61
2017-09-28 01:00:00 20.7 0 Calma 8 Noroeste 0 1010.2 1 63
2017-09-28 00:00:00 21.7 5 Oeste 9 Oeste 0 1010.3 1.6 57
2017-09-27 23:00:00 22.3 5 Oeste 8 Sudoeste 0 1009.7 1.3 57
2017-09-27 22:00:00 23.8 2 Sur 5 Sur 0 1009.2 1.2 52
2017-09-27 21:00:00 25 2 Oeste 17 Oeste 0 1008.7 0.8 48
2017-09-27 20:00:00 25.9 12 Oeste 18 Oeste 0 1008.4 0.4 44
2017-09-27 19:00:00 27.3 9 Oeste 13 Oeste 0 1008 -0.4 39
2017-09-27 18:00:00 27.4 5 Oeste 18 Sur 0 1007.9 -0.8 37
2017-09-27 17:00:00 27.6 4 Nordeste 11 Norte 0 1008 -1.7 33
2017-09-27 16:00:00 28 3 Este 17 Este 0 1008.4 -1.8 32
2017-09-27 15:00:00 27.2 9 Este 18 Este 0 1008.7 -1.8 32
2017-09-27 14:00:00 26.2 9 Nordeste 21 Nordeste 0 1009.7 -0.8 31
2017-09-27 13:00:00 23.7 5 Nordeste 17 Este 0 1010.2 -0.2 32
2017-09-27 12:00:00 22.6 10 Nordeste 18 Este 0 1010.5 0.5 32
2017-09-27 11:00:00 20.4 12 Este 18 Nordeste 0 1010.5 0.9 36
2017-09-27 10:00:00 19.5 12 Este 17 Este 0 1010.4 -- 36
2017-09-27 09:00:00 16.8 9 Este 15 Este 0 1010 -- 46
2017-09-27 08:00:00 14.7 0 Calma -- -- -- 1009.6 -- 56
2017-09-27 07:00:00 -- -- -- -- -- -- -- -- --
2017-09-27 06:00:00 -- -- -- -- -- -- -- -- --
2017-09-27 05:00:00 -- -- -- -- -- -- -- -- --
2017-09-27 04:00:00 -- -- -- -- -- -- -- -- --
2017-09-27 03:00:00 -- -- -- -- -- -- -- -- --
2017-09-27 02:00:00 -- -- -- -- -- -- -- -- --
2017-09-27 01:00:00 19.1 7 Sudoeste 13 Oeste 0 1008.3 1.1 31
2017-09-27 00:00:00 20.8 9 Sudoeste 18 Sudoeste 0 1008.1 2.1 27
2017-09-26 23:00:00 22.3 12 Oeste 18 Sudoeste 0 1007.7 2.4 26
2017-09-26 22:00:00 24.4 10 Oeste 24 Oeste 0 1007.2 2 24
2017-09-26 21:00:00 24.8 8 Sudoeste 11 Sudoeste 0 1006 1.2 24
2017-09-26 20:00:00 29.6 5 Oeste 18 Sudoeste 0 1005.3 0.3 16
2017-09-26 19:00:00 32.2 14 Oeste 24 Oeste 0 1005.2 -0.4 14
2017-09-26 18:00:00 32.9 14 Oeste 26 Sudoeste 0 1004.8 -1.6 14
2017-09-26 17:00:00 32.6 13 Oeste 24 Oeste 0 1005 -- 15
2017-09-26 16:00:00 32.1 8 Noroeste 22 Oeste 0 1005.6 -2.4 16
2017-09-26 15:00:00 31.4 6 Oeste -- -- -- 1006.4 -2 18
2017-09-26 14:00:00 -- -- -- 11 Sudeste 0 -- -- --
2017-09-26 13:00:00 28.6 4 Sur 11 Sur 0 1008 -0.4 26
2017-09-26 12:00:00 25.7 2 Sur 8 Sudeste 0 1008.4 0.3 33
2017-09-26 11:00:00 22.7 2 Este 9 Nordeste 0 1008.6 0.6 38
2017-09-26 10:00:00 19 0 Calma -- -- 0 1008.4 0.7 49
2017-09-26 09:00:00 13.9 0 Calma -- -- 0 1008.1 0.3 61
2017-09-26 08:00:00 12.3 0 Calma -- -- 0 1008 0.1 67
2017-09-26 07:00:00 12.8 0 Calma -- -- 0 1007.7 -0.4 64
2017-09-26 06:00:00 13.5 0 Calma -- -- 0 1007.8 -0.3 64
2017-09-26 05:00:00 14.9 0 Calma -- -- 0 1007.9 -0.4 59
2017-09-26 04:00:00 15.6 0 Calma -- -- 0 1008.1 0 56
2017-09-26 03:00:00 17 0 Calma 4 Sur 0 1008.1 0.1 51
2017-09-26 02:00:00 19 0 Calma 11 Oeste 0 1008.3 0.7 43
2017-09-26 01:00:00 20 4 Sudoeste 13 Sur 0 1008.1 1.1 33
2017-09-26 00:00:00 22.3 0 Calma 11 Sudoeste 0 1008 1.5 29
2017-09-25 23:00:00 24.5 9 Sur 13 Sur 0 1007.6 1.6 25
2017-09-25 22:00:00 27.5 5 Sudoeste 28 Norte 0 1007 1.1 20
2017-09-25 21:00:00 27 7 Oeste 17 Oeste 0 1006.5 0.5 29
2017-09-25 20:00:00 31.3 9 Sudoeste 26 Oeste 0 1006 -0.5 24
2017-09-25 19:00:00 33.4 18 Oeste 28 Sudoeste 0 1005.9 -1.5 20
2017-09-25 18:00:00 34.1 16 Sudoeste 28 Sudoeste 0 1006 -2 19
2017-09-25 17:00:00 33.9 20 Sudoeste 35 Sudoeste 0 1006.5 -2.4 18
2017-09-25 16:00:00 33.5 17 Sudoeste 28 Sudoeste 0 1007.4 -2.1 18
2017-09-25 15:00:00 32.4 16 Sudoeste 28 Sudoeste 0 1008 -2.3 17
2017-09-25 14:00:00 30.7 8 Oeste 18 Oeste 0 1008.9 -1.6 19
2017-09-25 13:00:00 28.8 4 Sudoeste 13 Sur 0 1009.5 -1 28
2017-09-25 12:00:00 26.6 0 Calma 8 Sudoeste 0 1010.3 0.2 34
2017-09-25 11:00:00 23.5 0 Calma 5 Este 0 1010.5 0.7 51
2017-09-25 10:00:00 21 0 Calma -- -- 0 1010.5 1.2 55
2017-09-25 09:00:00 16.5 0 Calma -- -- 0 1010.1 1 70
2017-09-25 08:00:00 14.8 0 Calma -- -- 0 1009.8 0.6 72
2017-09-25 07:00:00 15.5 0 Calma -- -- 0 1009.3 0 69
2017-09-25 06:00:00 16.4 0 Calma -- -- 0 1009.1 -0.2 63
2017-09-25 05:00:00 17.1 0 Calma 8 Sur 0 1009.2 0 62
2017-09-25 04:00:00 18.1 2 Oeste 9 Oeste 0 1009.3 0.2 58
2017-09-25 03:00:00 19.4 0 Calma 9 Oeste 0 1009.3 0.3 53
2017-09-25 02:00:00 20.2 6 Sudoeste 11 Oeste 0 1009.2 0.6 50
2017-09-25 01:00:00 21.1 0 Calma 8 Oeste 0 1009.1 0.7 48
2017-09-25 00:00:00 21.3 7 Oeste 13 Sur 0 1009 1.1 46
2017-09-24 23:00:00 21.7 0 Calma -- -- 0 1008.6 0.9 46
2017-09-24 22:00:00 23.8 0 Calma -- -- 0 1008.4 0.9 43
2017-09-24 21:00:00 26.6 0 Calma 17 Oeste 0 1007.9 0.4 33
2017-09-24 20:00:00 30.5 6 Oeste 21 Oeste 0 1007.7 -0.1 28
2017-09-24 19:00:00 32.8 12 Oeste 26 Oeste 0 1007.5 -0.9 24
2017-09-24 18:00:00 33.7 9 Sudoeste 18 Sur 0 1007.5 -1.4 22
2017-09-24 17:00:00 33.3 3 Oeste 18 Oeste 0 1007.8 -1.8 26
2017-09-24 16:00:00 32.5 5 Sur 17 Oeste 0 1008.4 -2 28
2017-09-24 15:00:00 32.5 0 Calma 15 Sur 0 1008.9 -1.9 29
2017-09-24 14:00:00 30.2 2 Norte 13 Norte 0 1009.6 -1.4 33
2017-09-24 13:00:00 28.9 0 Calma 15 Oeste 0 1010.4 -0.5 38
2017-09-24 12:00:00 27.5 0 Calma 11 Sudeste 0 1010.8 0.6 43
2017-09-24 11:00:00 25.3 3 Sudeste 8 Sudeste 0 1011 1.3 50
2017-09-24 10:00:00 22.4 3 Este 8 Este 0 1010.9 1.3 60
2017-09-24 09:00:00 18.3 0 Calma -- -- 0 1010.2 0.9 75
2017-09-24 08:00:00 16.5 0 Calma -- -- 0 1009.7 0.5 78
2017-09-24 07:00:00 17.2 0 Calma -- -- 0 1009.6 0.4 75
2017-09-24 06:00:00 18.4 0 Calma -- -- 0 1009.3 0 74
2017-09-24 05:00:00 19 0 Calma 4 Noroeste 0 1009.2 0.1 70
2017-09-24 04:00:00 20.1 4 Oeste 11 Oeste 0 1009.2 0.6 67
2017-09-24 03:00:00 21.2 5 Oeste 18 Oeste 0 1009.3 1.1 61
2017-09-24 02:00:00 21.5 0 Calma 13 Sur 0 1009.1 1.6 55
2017-09-24 01:00:00 21.3 0 Calma 18 Sudoeste 0 1008.6 1.7 53
2017-09-24 00:00:00 22.2 0 Calma 5 Noroeste 0 1008.2 1.7 49
2017-09-23 23:00:00 22.6 0 Calma 13 Sur 0 1007.5 1.6 49
2017-09-23 22:00:00 24.6 0 Calma -- -- -- 1006.9 1.3 42
2017-09-23 21:00:00 26.2 0 Calma 8 Oeste 0 1006.5 0.8 35
2017-09-23 20:00:00 30 4 Oeste 13 Sudoeste 0 1005.9 0 28
2017-09-23 19:00:00 32.3 0 Calma 11 Oeste 0 1005.6 -0.9 26
2017-09-23 18:00:00 32.6 3 Noroeste 17 Oeste 0 1005.7 -1.6 25
2017-09-23 17:00:00 32 2 Este 17 Este 0 1005.9 -2.2 26
2017-09-23 16:00:00 32.4 2 Sudeste 21 Sudeste 0 1006.5 -2 26
2017-09-23 15:00:00 31 2 Sur 17 Nordeste 0 1007.3 -1.6 32
2017-09-23 14:00:00 29 8 Nordeste 21 Nordeste 0 1008.1 -0.8 38
2017-09-23 13:00:00 28 5 Este 18 Este 0 1008.5 -0.2 42
2017-09-23 12:00:00 26.1 5 Este 15 Este 0 1008.9 0.8 48
2017-09-23 11:00:00 23.2 0 Calma -- -- 0 1008.9 1.3 55
2017-09-23 10:00:00 21.3 0 Calma 2 Sudeste 0 1008.7 1.6 60
2017-09-23 09:00:00 17.7 0 Calma -- -- 0 1008.1 1.3 70
2017-09-23 08:00:00 17.8 0 Calma 4 Sur 0 1007.6 0.6 74
2017-09-23 07:00:00 17.3 0 Calma -- -- 0 1007.1 0.1 72
2017-09-23 06:00:00 18.6 0 Calma 4 Sur 0 1006.8 -0.6 68
2017-09-23 05:00:00 19.5 0 Calma 8 Oeste 0 1007 -0.1 67
2017-09-23 04:00:00 20.1 6 Oeste 11 Oeste 0 1007 0.2 67
2017-09-23 03:00:00 21.7 6 Oeste 13 Oeste 0 1007.4 1 62
2017-09-23 02:00:00 22.1 5 Oeste 11 Oeste 0 1007.1 1.4 58
2017-09-23 01:00:00 22.7 5 Oeste 26 Oeste 0 1006.8 1.8 46
2017-09-23 00:00:00 24.6 14 Sudoeste 42 Sudoeste 0 1006.4 2.1 36